Time;durP1;ratioP1;P1;durP2;ratioP2;P2;SDS_P1;SDS_P2;PMS_P1;PMS_P2;Temp;Humidity;BMP_temperature;BMP_pressure;BME280_temperature;BME280_humidity;BME280_pressure;Samples;Min_cycle;Max_cycle;Signal;HPM_P1;HPM_P2
2022/08/02 00:01:19;;;;;;;9.93;4.05;;;13.30;99.90;;;;;;6117069;23;20024;-79
2022/08/02 00:03:44;;;;;;;6.43;3.25;;;13.40;99.90;;;;;;6165467;23;20016;-78
2022/08/02 00:06:10;;;;;;;7.93;3.70;;;13.30;99.90;;;;;;6165578;23;20016;-78
2022/08/02 00:08:35;;;;;;;6.07;3.40;;;13.30;99.90;;;;;;6140347;23;20048;-78
2022/08/02 00:11:01;;;;;;;8.00;3.45;;;13.30;99.90;;;;;;6165486;23;20016;-77
2022/08/02 00:13:27;;;;;;;10.52;3.90;;;13.30;99.90;;;;;;6165598;23;20012;-78
2022/08/02 00:15:53;;;;;;;6.30;3.50;;;13.30;99.90;;;;;;6166718;23;20238;-76
2022/08/02 00:18:18;;;;;;;7.25;3.83;;;13.40;99.90;;;;;;6164340;23;20021;-76
2022/08/02 00:20:44;;;;;;;8.88;4.57;;;13.30;99.90;;;;;;6143320;23;20204;-77
2022/08/02 00:23:10;;;;;;;9.68;3.60;;;13.30;99.90;;;;;;6190916;23;20307;-79
2022/08/02 00:25:35;;;;;;;9.18;3.92;;;13.40;99.90;;;;;;6166939;23;20013;-77
2022/08/02 00:28:01;;;;;;;10.43;4.13;;;13.30;99.90;;;;;;6165476;23;20027;-77
2022/08/02 00:30:27;;;;;;;12.32;4.97;;;13.40;99.90;;;;;;6168006;23;20123;-75
2022/08/02 00:32:52;;;;;;;9.38;4.45;;;13.40;99.90;;;;;;6142366;23;20191;-77
2022/08/02 00:35:18;;;;;;;10.02;4.93;;;13.40;99.90;;;;;;6191758;23;20049;-77
2022/08/02 00:37:44;;;;;;;11.43;5.32;;;13.30;99.90;;;;;;6192321;23;20013;-78
2022/08/02 00:40:10;;;;;;;7.13;4.30;;;13.30;99.90;;;;;;6167157;23;20013;-78
2022/08/02 00:42:37;;;;;;;11.27;4.80;;;13.30;99.90;;;;;;6141768;23;20013;-77
2022/08/02 00:45:03;;;;;;;10.32;4.88;;;13.40;99.90;;;;;;6166366;23;20368;-78
2022/08/02 00:47:29;;;;;;;7.70;4.30;;;13.40;99.90;;;;;;6143315;23;20025;-78
2022/08/02 00:49:54;;;;;;;7.70;4.07;;;13.30;99.90;;;;;;6164459;23;20208;-77
2022/08/02 00:52:22;;;;;;;10.23;3.67;;;13.40;99.90;;;;;;6167733;23;20244;-77
2022/08/02 00:54:48;;;;;;;9.82;3.65;;;13.40;99.90;;;;;;6141726;23;20239;-76
2022/08/02 00:57:14;;;;;;;5.30;3.05;;;13.30;99.90;;;;;;6165845;23;20017;-76
2022/08/02 00:59:40;;;;;;;9.07;3.50;;;13.30;99.90;;;;;;6142216;23;20068;-77
2022/08/02 01:02:07;;;;;;;5.28;3.42;;;13.30;99.90;;;;;;6142656;23;20270;-78
2022/08/02 01:04:33;;;;;;;9.13;4.07;;;13.30;99.90;;;;;;6190990;23;20060;-77
2022/08/02 01:07:00;;;;;;;6.88;3.58;;;13.20;99.90;;;;;;6141539;23;20295;-78
2022/08/02 01:09:26;;;;;;;7.82;3.30;;;13.20;99.90;;;;;;6141102;23;20091;-76
2022/08/02 01:11:52;;;;;;;5.65;3.15;;;13.20;99.90;;;;;;6167851;23;20019;-77
2022/08/02 01:14:18;;;;;;;8.32;3.80;;;13.20;99.90;;;;;;6189638;23;20017;-76
2022/08/02 01:17:04;;;;;;;7.05;3.35;;;13.20;99.90;;;;;;6142809;23;20020;-76
2022/08/02 01:19:48;;;;;;;6.90;3.42;;;13.10;99.90;;;;;;6191728;23;20176;-76
2022/08/02 01:22:44;;;;;;;7.50;3.15;;;13.10;99.90;;;;;;6165134;23;20016;-76
2022/08/02 01:25:38;;;;;;;9.77;4.55;;;13.10;99.90;;;;;;6166581;23;20009;-76
2022/08/02 01:28:27;;;;;;;9.30;3.40;;;13.10;99.90;;;;;;6190011;23;20021;-78
2022/08/02 01:31:18;;;;;;;6.63;3.95;;;13.00;99.90;;;;;;6192280;23;20020;-75
2022/08/02 01:34:13;;;;;;;7.10;3.97;;;13.00;99.90;;;;;;6167769;23;20041;-77
2022/08/02 01:36:42;;;;;;;9.97;4.00;;;13.00;99.90;;;;;;6191019;23;20013;-76
2022/08/02 01:39:13;;;;;;;12.43;4.78;;;12.90;99.90;;;;;;6192117;23;20237;-76
2022/08/02 01:41:41;;;;;;;9.10;4.05;;;12.90;99.90;;;;;;6166633;23;20023;-76
2022/08/02 01:44:09;;;;;;;9.13;4.78;;;12.80;99.90;;;;;;6166865;23;20016;-77
2022/08/02 01:46:39;;;;;;;8.93;4.38;;;12.80;99.90;;;;;;6191693;23;20059;-77
2022/08/02 01:49:13;;;;;;;12.20;5.40;;;12.80;99.90;;;;;;6192211;23;20001;-76
2022/08/02 01:54:31;;;;;;;10.43;5.38;;;12.60;99.90;;;;;;6191648;23;20054;-77
2022/08/02 01:56:58;;;;;;;10.13;5.22;;;12.60;99.90;;;;;;6190754;23;20203;-77
2022/08/02 01:59:27;;;;;;;16.02;5.65;;;12.60;99.90;;;;;;6166213;23;20068;-77
2022/08/02 02:01:54;;;;;;;10.60;5.68;;;12.60;99.90;;;;;;6166114;23;20299;-77
2022/08/02 02:04:21;;;;;;;9.65;5.30;;;12.60;99.90;;;;;;6165172;23;20016;-79
2022/08/02 02:06:48;;;;;;;10.73;5.22;;;12.60;99.90;;;;;;6189768;23;20013;-77
2022/08/02 02:09:15;;;;;;;10.23;5.05;;;12.60;99.90;;;;;;6163523;23;20020;-76
2022/08/02 02:11:45;;;;;;;11.05;5.47;;;12.60;99.90;;;;;;6164288;23;20020;-78
2022/08/02 02:14:14;;;;;;;9.13;4.57;;;12.60;99.90;;;;;;6189254;23;20026;-77
2022/08/02 02:16:42;;;;;;;6.97;4.50;;;12.70;99.90;;;;;;6189288;23;20020;-76
2022/08/02 02:19:09;;;;;;;11.40;4.80;;;12.70;99.90;;;;;;6188867;23;20009;-77
2022/08/02 02:21:36;;;;;;;11.52;4.38;;;12.70;99.90;;;;;;6188556;23;20024;-76
2022/08/02 02:24:02;;;;;;;8.13;4.22;;;12.70;99.90;;;;;;6163623;23;20394;-76
2022/08/02 02:26:29;;;;;;;7.50;4.10;;;12.70;99.90;;;;;;6188797;23;20055;-76
2022/08/02 02:28:58;;;;;;;7.75;4.20;;;12.70;99.90;;;;;;6164945;23;20017;-76
2022/08/02 02:31:25;;;;;;;9.10;4.50;;;12.70;99.90;;;;;;6188718;23;20013;-76
2022/08/02 02:34:13;;;;;;;9.13;4.57;;;12.70;99.90;;;;;;6165058;23;20288;-75
2022/08/02 02:36:44;;;;;;;11.35;5.40;;;12.70;99.90;;;;;;6190119;23;20048;-75
2022/08/02 02:39:12;;;;;;;8.05;4.55;;;12.70;99.90;;;;;;6164861;23;20016;-76
2022/08/02 02:41:40;;;;;;;8.43;4.28;;;12.70;99.90;;;;;;6164412;23;20043;-76
2022/08/02 02:44:08;;;;;;;8.20;4.03;;;12.60;99.90;;;;;;6163443;23;20009;-77
2022/08/02 02:46:35;;;;;;;9.30;4.90;;;12.60;99.90;;;;;;6139817;23;20017;-76
2022/08/02 02:49:01;;;;;;;8.32;4.80;;;12.60;99.90;;;;;;6189999;23;20250;-77
2022/08/02 02:51:28;;;;;;;8.73;5.30;;;12.60;99.90;;;;;;6138865;23;20179;-77
2022/08/02 02:53:55;;;;;;;8.23;4.38;;;12.70;99.90;;;;;;6163625;23;20298;-75
2022/08/02 02:56:22;;;;;;;9.20;4.97;;;12.60;99.90;;;;;;6164912;23;20194;-75
2022/08/02 02:58:48;;;;;;;9.00;4.25;;;12.60;99.90;;;;;;6164936;23;20017;-77
2022/08/02 03:01:26;;;;;;;8.38;4.88;;;12.70;99.90;;;;;;6187912;23;20009;-75
2022/08/02 03:03:53;;;;;;;11.18;4.57;;;12.70;99.90;;;;;;6165318;23;20032;-78
2022/08/02 03:06:20;;;;;;;11.57;4.80;;;12.70;99.90;;;;;;6188997;23;20009;-77
2022/08/02 03:08:46;;;;;;;13.15;4.78;;;12.70;99.90;;;;;;6163867;23;20016;-78
2022/08/02 03:11:12;;;;;;;7.35;4.53;;;12.80;99.90;;;;;;6165622;23;20009;-79
2022/08/02 03:13:38;;;;;;;13.05;4.95;;;12.80;99.90;;;;;;6140863;23;20004;-78
2022/08/02 03:16:05;;;;;;;10.65;5.05;;;12.80;99.90;;;;;;6165064;23;20008;-78
2022/08/02 03:18:39;;;;;;;8.98;5.15;;;12.70;99.90;;;;;;6166124;23;20037;-79
2022/08/02 03:21:07;;;;;;;9.43;4.95;;;12.90;99.90;;;;;;6166852;23;20172;-78
2022/08/02 03:23:34;;;;;;;11.50;5.10;;;12.80;99.90;;;;;;6165535;23;20195;-75
2022/08/02 03:26:00;;;;;;;7.72;4.90;;;12.80;99.90;;;;;;6167275;23;20017;-75
2022/08/02 03:28:26;;;;;;;10.10;5.15;;;12.80;99.90;;;;;;6190619;23;20272;-75
2022/08/02 03:30:52;;;;;;;7.90;5.07;;;12.70;99.90;;;;;;6166148;23;20198;-75
2022/08/02 03:33:22;;;;;;;9.02;5.35;;;12.80;99.90;;;;;;6165036;23;20020;-75
2022/08/02 03:35:49;;;;;;;6.47;4.78;;;12.70;99.90;;;;;;6191169;23;20013;-74
2022/08/02 03:38:18;;;;;;;12.85;4.95;;;12.80;99.90;;;;;;6163668;23;20024;-76
2022/08/02 03:40:45;;;;;;;8.82;5.40;;;12.90;99.90;;;;;;6190349;23;20005;-76
2022/08/02 03:43:11;;;;;;;10.02;5.50;;;12.80;99.90;;;;;;6188873;23;20017;-76
2022/08/02 03:45:46;;;;;;;8.57;5.13;;;12.80;99.90;;;;;;6169322;23;20009;-76
2022/08/02 03:48:14;;;;;;;7.97;4.93;;;12.80;99.90;;;;;;6195435;23;20021;-75
2022/08/02 03:50:41;;;;;;;9.80;4.70;;;12.70;99.90;;;;;;6196841;23;20017;-75
2022/08/02 03:53:08;;;;;;;9.45;4.07;;;12.70;99.90;;;;;;6196449;23;20229;-75
2022/08/02 03:55:38;;;;;;;8.10;4.57;;;12.80;99.90;;;;;;6196426;23;20019;-75
2022/08/02 03:58:04;;;;;;;9.82;5.28;;;12.90;99.90;;;;;;6198154;23;20013;-76
2022/08/02 04:00:31;;;;;;;8.30;4.40;;;12.90;99.90;;;;;;6196890;23;20016;-76
2022/08/02 04:02:56;;;;;;;11.02;4.80;;;12.90;99.90;;;;;;6173396;23;20005;-76
2022/08/02 04:05:23;;;;;;;9.13;4.90;;;12.90;99.90;;;;;;6172470;23;20070;-74
2022/08/02 04:07:49;;;;;;;8.13;4.50;;;12.90;99.90;;;;;;6171896;23;20012;-76
2022/08/02 04:10:15;;;;;;;9.50;4.65;;;13.00;99.90;;;;;;6171889;23;20341;-76
2022/08/02 04:12:41;;;;;;;11.80;5.40;;;12.90;99.90;;;;;;6198017;23;20333;-75
2022/08/02 04:15:09;;;;;;;9.10;4.35;;;13.00;99.90;;;;;;6147659;23;20013;-75
2022/08/02 04:17:42;;;;;;;6.28;4.40;;;13.00;99.90;;;;;;6147245;23;20102;-74
2022/08/02 04:20:19;;;;;;;12.55;4.70;;;13.00;99.90;;;;;;6197014;23;20160;-74
2022/08/02 04:22:59;;;;;;;13.80;5.43;;;13.00;99.90;;;;;;6196956;23;20016;-75
2022/08/02 04:25:26;;;;;;;10.45;4.80;;;12.90;99.90;;;;;;6195678;23;20024;-76
2022/08/02 04:27:52;;;;;;;8.70;4.70;;;13.00;99.90;;;;;;6147217;23;20180;-76
2022/08/02 04:30:19;;;;;;;7.78;5.20;;;12.90;99.90;;;;;;6197273;23;20020;-75
2022/08/02 04:32:45;;;;;;;7.47;5.00;;;12.90;99.90;;;;;;6196650;23;20008;-76
2022/08/02 04:35:11;;;;;;;8.05;5.13;;;13.00;99.90;;;;;;6172123;23;20275;-75
2022/08/02 04:37:38;;;;;;;8.18;4.82;;;12.90;99.90;;;;;;6195988;23;20250;-76
2022/08/02 04:40:08;;;;;;;11.90;5.50;;;13.00;99.90;;;;;;6197368;23;20008;-76
2022/08/02 04:42:34;;;;;;;8.02;5.03;;;13.00;99.90;;;;;;6171260;23;20017;-74
2022/08/02 04:45:01;;;;;;;7.03;4.70;;;13.00;99.90;;;;;;6195841;23;20356;-76
2022/08/02 04:47:27;;;;;;;8.20;4.88;;;13.10;99.90;;;;;;6195106;23;20283;-75
2022/08/02 04:49:53;;;;;;;12.60;5.05;;;13.20;99.90;;;;;;6172120;23;20028;-75
2022/08/02 04:52:19;;;;;;;11.77;5.10;;;13.20;99.90;;;;;;6195682;23;20014;-75
2022/08/02 04:54:45;;;;;;;8.63;5.03;;;13.30;99.90;;;;;;6196046;23;20103;-76
2022/08/02 04:59:55;;;;;;;9.25;4.43;;;13.30;99.90;;;;;;6176147;23;20020;-76
2022/08/02 05:02:21;;;;;;;10.40;5.30;;;13.50;99.90;;;;;;6170421;23;20351;-77
2022/08/02 05:04:47;;;;;;;11.35;5.43;;;13.50;99.90;;;;;;6172864;23;20043;-78
2022/08/02 05:07:12;;;;;;;10.50;4.95;;;13.60;99.90;;;;;;6147376;23;20259;-79
2022/08/02 05:09:38;;;;;;;10.30;5.20;;;13.50;99.90;;;;;;6148031;23;20019;-79
2022/08/02 05:12:04;;;;;;;12.43;5.55;;;13.60;99.90;;;;;;6171847;23;20067;-76
2022/08/02 05:14:30;;;;;;;9.75;4.88;;;13.60;99.90;;;;;;6170668;23;20012;-78
2022/08/02 05:16:56;;;;;;;10.48;5.40;;;13.60;99.90;;;;;;6172520;23;20027;-77
2022/08/02 05:19:21;;;;;;;9.32;5.15;;;13.70;99.90;;;;;;6147169;23;20017;-78
2022/08/02 05:21:47;;;;;;;10.07;4.63;;;13.70;99.90;;;;;;6171736;23;20016;-79
2022/08/02 05:24:12;;;;;;;9.52;5.18;;;13.60;99.90;;;;;;6196111;23;20017;-78
2022/08/02 05:26:38;;;;;;;15.95;5.93;;;13.80;99.90;;;;;;6123884;23;20039;-77
2022/08/02 05:29:04;;;;;;;7.05;4.90;;;13.80;99.90;;;;;;6171702;23;20015;-76
2022/08/02 05:31:31;;;;;;;13.30;5.75;;;13.90;99.90;;;;;;6171809;23;20306;-77
2022/08/02 05:33:57;;;;;;;7.93;5.57;;;13.90;99.90;;;;;;6171484;23;20054;-76
2022/08/02 05:36:23;;;;;;;7.85;5.47;;;14.00;99.90;;;;;;6196747;23;20008;-76
2022/08/02 05:38:49;;;;;;;10.43;5.57;;;14.00;99.90;;;;;;6147277;23;20013;-76
2022/08/02 05:41:17;;;;;;;9.98;4.63;;;14.10;99.90;;;;;;6195220;23;20015;-77
2022/08/02 05:43:44;;;;;;;11.48;5.22;;;14.20;99.90;;;;;;6147374;23;20017;-76
2022/08/02 05:46:09;;;;;;;8.13;4.82;;;14.20;99.90;;;;;;6171394;23;20017;-75
2022/08/02 05:48:35;;;;;;;11.07;5.20;;;14.30;99.90;;;;;;6146974;23;20094;-75
2022/08/02 05:51:19;;;;;;;9.38;4.93;;;14.40;99.90;;;;;;6195926;23;20008;-76
2022/08/02 05:53:50;;;;;;;11.15;4.85;;;14.40;99.90;;;;;;6196309;23;20019;-77
2022/08/02 05:56:36;;;;;;;11.35;5.25;;;14.40;99.90;;;;;;6196084;23;20048;-75
2022/08/02 05:59:10;;;;;;;6.22;4.45;;;14.40;99.90;;;;;;6171863;23;20048;-75
2022/08/02 06:01:42;;;;;;;11.15;5.00;;;14.40;99.90;;;;;;6196589;23;20040;-75
2022/08/02 06:04:15;;;;;;;8.82;4.43;;;14.40;99.90;;;;;;6196470;23;20156;-76
2022/08/02 06:06:43;;;;;;;10.37;5.07;;;14.50;99.90;;;;;;6194761;23;20013;-77
2022/08/02 06:09:14;;;;;;;8.98;5.00;;;14.50;99.90;;;;;;6171399;23;20294;-75
2022/08/02 06:11:50;;;;;;;9.38;4.78;;;14.60;99.90;;;;;;6171281;23;20024;-76
2022/08/02 06:14:17;;;;;;;8.55;4.60;;;14.80;99.90;;;;;;6194727;23;20016;-77
2022/08/02 06:16:43;;;;;;;12.85;4.88;;;14.90;99.90;;;;;;6171666;23;20044;-74
2022/08/02 06:19:11;;;;;;;8.73;4.47;;;14.90;99.90;;;;;;6171953;23;20009;-76
2022/08/02 06:21:42;;;;;;;6.22;3.90;;;14.90;99.90;;;;;;6171915;23;20016;-75
2022/08/02 06:24:09;;;;;;;7.95;4.47;;;15.20;99.90;;;;;;6195103;23;20205;-76
2022/08/02 06:26:35;;;;;;;7.68;4.40;;;15.30;99.90;;;;;;6195786;23;20251;-73
2022/08/02 06:29:02;;;;;;;9.25;4.32;;;15.30;99.90;;;;;;6196695;23;20051;-75
2022/08/02 06:31:28;;;;;;;7.32;4.03;;;15.40;99.90;;;;;;6120451;23;20012;-77
2022/08/02 06:33:54;;;;;;;8.27;3.97;;;15.60;99.90;;;;;;6169400;23;20064;-76
2022/08/02 06:36:39;;;;;;;6.93;3.72;;;15.70;99.90;;;;;;6171653;23;20009;-76
2022/08/02 06:39:12;;;;;;;5.95;3.50;;;15.90;99.90;;;;;;6196206;23;20027;-77
2022/08/02 06:41:41;;;;;;;5.43;3.30;;;16.10;99.90;;;;;;6171726;23;20361;-77
2022/08/02 06:44:07;;;;;;;10.02;3.92;;;16.10;99.90;;;;;;6171555;23;20203;-75
2022/08/02 06:46:34;;;;;;;4.80;3.10;;;16.20;99.90;;;;;;6164419;23;20024;-76
2022/08/02 06:49:01;;;;;;;8.32;2.95;;;16.50;99.90;;;;;;6164255;23;20068;-77
2022/08/02 06:51:27;;;;;;;7.75;3.88;;;16.40;99.90;;;;;;6190946;23;20087;-77
2022/08/02 06:53:53;;;;;;;11.27;3.55;;;16.50;99.90;;;;;;6191901;23;20013;-76
2022/08/02 06:56:20;;;;;;;6.43;2.70;;;16.70;99.90;;;;;;6163967;23;20211;-76
2022/08/02 06:58:45;;;;;;;7.53;2.92;;;16.70;99.90;;;;;;6164380;23;20072;-76
2022/08/02 07:01:12;;;;;;;7.40;3.00;;;16.90;99.90;;;;;;6166452;23;20017;-76
2022/08/02 07:03:39;;;;;;;4.65;2.70;;;16.90;99.90;;;;;;6190195;23;20009;-76
2022/08/02 07:06:09;;;;;;;7.05;3.10;;;17.00;99.90;;;;;;6191309;23;20017;-77
2022/08/02 07:08:39;;;;;;;4.82;2.58;;;17.10;99.90;;;;;;6166180;23;20023;-76
2022/08/02 07:11:06;;;;;;;5.30;2.58;;;17.30;99.90;;;;;;6166203;23;20013;-75
2022/08/02 07:13:32;;;;;;;5.75;2.50;;;17.20;99.90;;;;;;6165499;23;20027;-76
2022/08/02 07:15:57;;;;;;;3.97;2.42;;;17.40;99.90;;;;;;6140677;23;20009;-76
2022/08/02 07:18:27;;;;;;;6.18;2.50;;;17.60;99.90;;;;;;6166368;23;20036;-76
2022/08/02 07:20:53;;;;;;;4.45;2.60;;;17.70;99.90;;;;;;6165198;23;20024;-76
2022/08/02 07:23:19;;;;;;;6.70;2.60;;;17.80;99.90;;;;;;6191197;23;20215;-76
2022/08/02 07:25:46;;;;;;;5.32;2.30;;;17.90;99.90;;;;;;6164688;23;20009;-76
2022/08/02 07:28:14;;;;;;;5.40;3.05;;;17.80;99.90;;;;;;6140148;23;20199;-75
2022/08/02 07:30:40;;;;;;;4.15;2.10;;;17.80;99.90;;;;;;6188498;23;20009;-76
2022/08/02 07:33:06;;;;;;;4.10;2.33;;;18.00;99.90;;;;;;6191004;23;20012;-76
2022/08/02 07:35:32;;;;;;;8.60;2.53;;;18.10;99.90;;;;;;6166356;23;20073;-76
2022/08/02 07:37:58;;;;;;;5.80;2.25;;;18.10;99.90;;;;;;6186833;23;20115;-74
2022/08/02 07:40:24;;;;;;;3.72;1.90;;;18.30;99.90;;;;;;6165588;23;20009;-75
2022/08/02 07:42:52;;;;;;;4.85;1.98;;;18.40;99.90;;;;;;6165907;23;20009;-75
2022/08/02 07:45:19;;;;;;;5.55;2.38;;;18.50;99.90;;;;;;6190725;23;20016;-74
2022/08/02 07:47:45;;;;;;;5.65;2.78;;;18.50;99.90;;;;;;6189738;23;20028;-75
2022/08/02 07:50:12;;;;;;;5.07;2.00;;;18.60;99.90;;;;;;6165526;23;20266;-75
2022/08/02 07:52:41;;;;;;;2.78;1.67;;;18.70;99.90;;;;;;6140697;23;20091;-75
2022/08/02 07:55:08;;;;;;;4.05;2.00;;;18.70;99.90;;;;;;6165791;23;20041;-75
2022/08/02 07:57:34;;;;;;;3.60;2.10;;;18.90;99.90;;;;;;6165403;23;20013;-75
2022/08/02 07:59:59;;;;;;;3.15;1.52;;;19.00;99.90;;;;;;6190737;23;20101;-75
2022/08/02 08:02:25;;;;;;;2.03;1.20;;;19.00;99.90;;;;;;6140665;23;20031;-75
2022/08/02 08:04:51;;;;;;;3.17;1.90;;;19.10;99.90;;;;;;6190404;23;20009;-74
2022/08/02 08:07:17;;;;;;;5.38;1.90;;;19.20;99.90;;;;;;6165419;23;20268;-75
2022/08/02 08:09:44;;;;;;;5.13;1.92;;;19.30;99.90;;;;;;6140468;23;20013;-74
2022/08/02 08:12:10;;;;;;;3.55;1.80;;;19.40;99.90;;;;;;6165810;23;20020;-75
2022/08/02 08:14:37;;;;;;;4.35;1.70;;;19.50;99.90;;;;;;6190017;23;20049;-74
2022/08/02 08:17:07;;;;;;;3.05;1.70;;;19.60;99.90;;;;;;6141181;23;20203;-74
2022/08/02 08:19:34;;;;;;;5.20;2.15;;;19.60;99.90;;;;;;6189539;23;20017;-75
2022/08/02 08:22:00;;;;;;;3.30;1.58;;;19.70;99.90;;;;;;6141072;23;20195;-75
2022/08/02 08:24:29;;;;;;;1.88;1.25;;;19.80;99.90;;;;;;6189822;23;20016;-75
2022/08/02 08:26:55;;;;;;;2.65;1.40;;;19.80;99.90;;;;;;6165599;23;20195;-75
2022/08/02 08:29:22;;;;;;;3.17;1.42;;;19.90;99.90;;;;;;6165529;23;20013;-75
2022/08/02 08:31:48;;;;;;;2.42;1.40;;;20.00;99.90;;;;;;6165295;23;20013;-75
2022/08/02 08:34:14;;;;;;;3.03;1.65;;;20.30;99.90;;;;;;6165905;23;20020;-74
2022/08/02 08:36:40;;;;;;;2.65;1.20;;;20.30;99.90;;;;;;6190760;23;20103;-75
2022/08/02 08:39:06;;;;;;;2.05;1.10;;;20.30;99.90;;;;;;6192303;23;20257;-75
2022/08/02 08:41:32;;;;;;;2.90;1.35;;;20.40;99.90;;;;;;6167053;23;20020;-75
2022/08/02 08:43:58;;;;;;;2.80;1.02;;;20.40;99.90;;;;;;6167588;23;20119;-75
2022/08/02 08:46:29;;;;;;;1.67;1.17;;;20.50;99.90;;;;;;6166793;23;20017;-76
2022/08/02 08:49:01;;;;;;;2.08;1.38;;;20.60;99.90;;;;;;6167823;23;20040;-75
2022/08/02 08:51:34;;;;;;;2.38;1.25;;;20.60;99.90;;;;;;6166776;23;20013;-74
2022/08/02 08:54:03;;;;;;;1.75;1.15;;;20.70;99.90;;;;;;6192293;23;20048;-76
2022/08/02 08:56:33;;;;;;;1.38;1.10;;;20.90;99.90;;;;;;6166512;23;20044;-75
2022/08/02 08:58:59;;;;;;;2.95;1.25;;;20.90;99.90;;;;;;6192124;23;20299;-75
2022/08/02 09:01:25;;;;;;;2.85;1.13;;;21.00;99.90;;;;;;6166532;23;20009;-74
2022/08/02 09:03:51;;;;;;;1.60;1.15;;;21.00;99.90;;;;;;6167133;23;20037;-75
2022/08/02 09:06:16;;;;;;;1.27;0.98;;;21.10;99.90;;;;;;6142659;23;20044;-74
2022/08/02 09:08:43;;;;;;;3.10;1.33;;;21.20;99.90;;;;;;6141928;23;20032;-75
2022/08/02 09:11:18;;;;;;;2.88;1.20;;;21.40;99.90;;;;;;6167298;23;20205;-75
2022/08/02 09:14:01;;;;;;;2.50;1.02;;;21.50;99.90;;;;;;6166487;23;20196;-75
2022/08/02 09:16:32;;;;;;;1.73;1.10;;;21.60;99.90;;;;;;6191208;23;20012;-75
2022/08/02 09:18:59;;;;;;;1.35;1.10;;;21.80;99.90;;;;;;6191984;23;20041;-75
2022/08/02 09:21:35;;;;;;;3.72;1.10;;;21.80;99.90;;;;;;6167411;23;20221;-75
2022/08/02 09:24:01;;;;;;;1.40;0.85;;;21.90;99.90;;;;;;6191764;23;20016;-75
2022/08/02 09:26:27;;;;;;;2.05;1.15;;;22.00;99.90;;;;;;6166284;23;20008;-76
2022/08/02 09:29:00;;;;;;;1.92;1.20;;;22.10;99.90;;;;;;6166878;23;20199;-75
2022/08/02 09:31:26;;;;;;;1.45;1.13;;;22.30;99.90;;;;;;6191326;23;20020;-75
2022/08/02 09:33:59;;;;;;;1.65;1.13;;;22.50;99.90;;;;;;6191614;23;20012;-75
2022/08/02 09:36:27;;;;;;;2.78;1.10;;;22.80;99.90;;;;;;6191617;23;20323;-75
2022/08/02 09:39:00;;;;;;;1.70;1.20;;;22.90;99.90;;;;;;6191552;23;20071;-75
2022/08/02 09:41:31;;;;;;;3.00;1.38;;;23.10;99.90;;;;;;6191291;23;20009;-75
2022/08/02 09:43:59;;;;;;;3.28;1.50;;;23.00;99.90;;;;;;6166556;23;20009;-76
2022/08/02 09:46:29;;;;;;;2.03;1.15;;;23.30;99.90;;;;;;6169838;23;20021;-76
2022/08/02 09:49:06;;;;;;;2.92;1.50;;;23.40;99.90;;;;;;6171304;23;20238;-75
2022/08/02 09:51:56;;;;;;;3.03;1.45;;;23.60;99.90;;;;;;6171132;23;20071;-75
2022/08/02 09:54:25;;;;;;;3.92;1.75;;;23.60;99.90;;;;;;6196897;23;20019;-76
2022/08/02 09:56:57;;;;;;;3.70;1.45;;;23.40;99.90;;;;;;6195843;23;20012;-77
2022/08/02 09:59:24;;;;;;;2.20;1.40;;;23.40;99.90;;;;;;6196464;23;20012;-76
2022/08/02 10:01:52;;;;;;;1.95;1.45;;;23.40;99.90;;;;;;6195830;23;20016;-76
2022/08/02 10:04:20;;;;;;;4.78;1.40;;;23.40;99.90;;;;;;6171705;23;20291;-77
2022/08/02 10:06:47;;;;;;;2.83;1.50;;;23.30;99.90;;;;;;6146764;23;20321;-76
2022/08/02 10:09:13;;;;;;;2.97;1.50;;;23.40;99.90;;;;;;6171432;23;20255;-77
2022/08/02 10:11:39;;;;;;;3.50;1.83;;;23.60;99.90;;;;;;6146243;23;20008;-77
2022/08/02 10:14:06;;;;;;;3.50;1.60;;;23.80;99.90;;;;;;6196442;23;20297;-76
2022/08/02 10:16:34;;;;;;;3.22;1.70;;;24.00;99.90;;;;;;6170878;23;20071;-75
2022/08/02 10:19:03;;;;;;;4.75;1.95;;;24.00;99.90;;;;;;6196049;23;20015;-76
2022/08/02 10:21:36;;;;;;;2.33;1.60;;;23.80;99.90;;;;;;6171217;23;20016;-75
2022/08/02 10:24:10;;;;;;;4.25;2.10;;;24.00;99.90;;;;;;6196167;23;20043;-77
2022/08/02 10:26:41;;;;;;;2.63;1.60;;;24.00;99.90;;;;;;6171103;23;20158;-77
2022/08/02 10:29:14;;;;;;;3.15;1.45;;;24.10;99.90;;;;;;6171371;23;20008;-76
2022/08/02 10:32:21;;;;;;;2.58;1.60;;;24.60;99.90;;;;;;6195606;23;20055;-76
2022/08/02 10:34:57;;;;;;;2.38;1.95;;;24.70;99.90;;;;;;6195734;23;20054;-76
2022/08/02 10:37:30;;;;;;;3.47;1.90;;;24.40;99.90;;;;;;6196212;23;20086;-76
2022/08/02 10:39:56;;;;;;;4.93;2.30;;;24.50;99.90;;;;;;6196326;23;20075;-76
2022/08/02 10:42:41;;;;;;;3.30;2.03;;;24.60;99.90;;;;;;6171569;23;20015;-76
2022/08/02 10:45:10;;;;;;;;;;;24.50;99.90;;;;;;6196583;23;20015;-73
2022/08/02 10:47:36;;;;;;;2.42;1.80;;;25.00;99.90;;;;;;6170206;23;20240;-74
2022/08/02 10:50:02;;;;;;;4.00;2.33;;;24.90;99.90;;;;;;6195738;23;20048;-74
2022/08/02 10:52:32;;;;;;;3.40;2.50;;;24.90;99.90;;;;;;6195781;23;20020;-74
2022/08/02 10:54:58;;;;;;;3.53;2.10;;;24.90;99.90;;;;;;6171027;23;20297;-74
2022/08/02 10:57:25;;;;;;;4.38;2.67;;;24.70;99.90;;;;;;6195794;23;20073;-74
2022/08/02 10:59:59;;;;;;;3.83;2.58;;;24.90;99.90;;;;;;6195075;23;20263;-74
2022/08/02 11:02:34;;;;;;;3.95;2.60;;;24.80;99.90;;;;;;6171230;23;20016;-74
2022/08/02 11:05:05;;;;;;;3.47;1.92;;;24.80;99.90;;;;;;6195914;23;20326;-75
2022/08/02 11:07:35;;;;;;;2.67;2.20;;;24.70;99.90;;;;;;6195558;23;20261;-74
2022/08/02 11:10:23;;;;;;;4.18;2.13;;;25.30;99.90;;;;;;6195853;23;20392;-74
2022/08/02 11:13:03;;;;;;;4.70;2.40;;;25.30;99.90;;;;;;6170177;23;20019;-74
2022/08/02 11:15:30;;;;;;;4.63;2.10;;;25.80;99.90;;;;;;6170858;23;20018;-73
2022/08/02 11:17:59;;;;;;;3.90;2.33;;;25.90;99.90;;;;;;6170875;23;20356;-76
2022/08/02 11:20:26;;;;;;;6.15;2.80;;;25.50;99.90;;;;;;6195483;23;20016;-76
2022/08/02 11:22:54;;;;;;;4.55;2.50;;;25.70;99.90;;;;;;6146049;23;20207;-76
2022/08/02 11:25:23;;;;;;;5.45;2.10;;;26.00;99.90;;;;;;6170894;23;20005;-75
2022/08/02 11:27:56;;;;;;;3.67;2.25;;;26.00;99.90;;;;;;6194940;23;20194;-76
2022/08/02 11:30:23;;;;;;;5.32;2.33;;;25.80;99.90;;;;;;6171025;23;20012;-76
2022/08/02 11:32:49;;;;;;;3.50;2.30;;;25.90;99.90;;;;;;6145841;23;20250;-76
2022/08/02 11:35:15;;;;;;;3.40;2.28;;;25.90;99.90;;;;;;6170785;23;20040;-76
2022/08/02 11:37:44;;;;;;;2.63;2.10;;;25.80;99.90;;;;;;6170211;23;20303;-76
2022/08/02 11:40:13;;;;;;;3.95;2.28;;;25.70;99.90;;;;;;6171145;23;20043;-77
2022/08/02 11:42:41;;;;;;;3.72;2.30;;;25.60;99.90;;;;;;6170046;23;20032;-76
2022/08/02 11:45:08;;;;;;;3.28;2.42;;;25.60;99.90;;;;;;6171459;23;20022;-77
2022/08/02 11:47:49;;;;;;;3.30;2.63;;;25.70;99.90;;;;;;6170697;23;20032;-77
2022/08/02 11:50:17;;;;;;;5.03;2.45;;;25.70;99.90;;;;;;6171150;23;20055;-77
2022/08/02 11:52:42;;;;;;;4.28;2.45;;;25.80;99.90;;;;;;6170141;23;20008;-77
2022/08/02 11:55:09;;;;;;;3.47;2.55;;;26.00;99.90;;;;;;6146573;23;20186;-77
2022/08/02 11:57:36;;;;;;;4.35;2.45;;;25.90;99.90;;;;;;6170523;23;20055;-77
2022/08/02 12:00:13;;;;;;;4.15;2.40;;;25.90;99.90;;;;;;6195592;23;20008;-76
2022/08/02 12:02:45;;;;;;;5.00;2.50;;;25.90;99.90;;;;;;6195138;23;20016;-77
2022/08/02 12:05:16;;;;;;;5.40;2.75;;;25.60;99.90;;;;;;6195853;23;20257;-76
2022/08/02 12:07:43;;;;;;;6.75;2.45;;;25.90;99.90;;;;;;6194375;23;20047;-77
2022/08/02 12:10:16;;;;;;;3.10;2.05;;;26.20;99.90;;;;;;6195939;23;20317;-76
2022/08/02 12:12:53;;;;;;;3.15;2.17;;;26.30;99.90;;;;;;6197207;23;20008;-76
2022/08/02 12:15:35;;;;;;;5.05;2.45;;;26.40;99.90;;;;;;6197878;23;20063;-78
2022/08/02 12:20:46;;;;;;;3.55;2.08;;;26.40;99.90;;;;;;6197182;23;20019;-76
2022/08/02 12:23:12;;;;;;;3.35;2.17;;;26.30;99.90;;;;;;6197718;23;20005;-76
2022/08/02 12:25:38;;;;;;;4.25;1.70;;;26.00;99.90;;;;;;6196781;23;20017;-76
2022/08/02 12:28:24;;;;;;;2.67;1.85;;;25.90;99.90;;;;;;6197459;23;20019;-76
2022/08/02 12:30:59;;;;;;;2.53;1.73;;;25.70;99.90;;;;;;6172342;23;20043;-77
2022/08/02 12:33:53;;;;;;;3.40;1.80;;;25.80;99.90;;;;;;6172510;23;20036;-76
2022/08/02 12:36:28;;;;;;;3.28;2.00;;;25.60;99.90;;;;;;6197488;23;20047;-75
2022/08/02 12:38:59;;;;;;;3.15;2.22;;;25.80;99.90;;;;;;6173090;23;20300;-76
2022/08/02 12:41:27;;;;;;;3.85;2.28;;;25.80;99.90;;;;;;6172816;23;20068;-77
2022/08/02 12:43:54;;;;;;;2.60;2.22;;;25.90;99.90;;;;;;6172267;23;20017;-76
2022/08/02 12:46:21;;;;;;;4.72;2.20;;;25.90;99.90;;;;;;6172723;23;20077;-77
2022/08/02 12:48:47;;;;;;;3.17;2.03;;;25.60;99.90;;;;;;6196960;23;20028;-76
2022/08/02 12:51:27;;;;;;;4.90;2.63;;;25.60;99.90;;;;;;6197468;23;20028;-76
2022/08/02 12:53:56;;;;;;;3.15;2.80;;;25.50;99.90;;;;;;6196514;23;20080;-77
2022/08/02 12:56:30;;;;;;;3.47;2.80;;;25.50;99.90;;;;;;6172686;23;20059;-77
2022/08/02 12:58:56;;;;;;;5.65;3.35;;;25.20;99.90;;;;;;6171860;23;20314;-77
2022/08/02 13:01:24;;;;;;;5.70;3.58;;;25.10;99.90;;;;;;6172332;23;20218;-77
2022/08/02 13:03:51;;;;;;;5.68;3.75;;;24.90;99.90;;;;;;6171596;23;20008;-77